createdAt,value
2019-01-10T00:00:52.510Z,992.25
2019-01-10T00:01:52.502Z,992.25
2019-01-10T00:02:52.481Z,992.3
2019-01-10T00:03:52.471Z,992.28
2019-01-10T00:04:52.459Z,992.34
2019-01-10T00:05:52.454Z,992.31
2019-01-10T00:06:52.432Z,992.35
2019-01-10T00:07:52.425Z,992.36
2019-01-10T00:08:52.410Z,992.39
2019-01-10T00:09:52.399Z,992.42
2019-01-10T00:10:52.388Z,992.45
2019-01-10T00:11:52.375Z,992.44
2019-01-10T00:12:52.362Z,992.45
2019-01-10T00:13:52.348Z,992.47
2019-01-10T00:14:52.339Z,992.47
2019-01-10T00:15:52.327Z,992.46
2019-01-10T00:16:52.314Z,992.47
2019-01-10T00:17:52.307Z,992.48
2019-01-10T00:18:52.294Z,992.5
2019-01-10T00:19:52.284Z,992.52
2019-01-10T00:20:52.269Z,992.54
2019-01-10T00:21:52.259Z,992.52
2019-01-10T00:22:52.245Z,992.54
2019-01-10T00:23:52.231Z,992.6
2019-01-10T00:24:52.220Z,992.59
2019-01-10T00:25:52.214Z,992.54
2019-01-10T00:26:52.207Z,992.61
2019-01-10T00:27:52.184Z,992.57
2019-01-10T00:28:52.174Z,992.57
2019-01-10T00:29:52.162Z,992.6
2019-01-10T00:30:52.148Z,992.59
2019-01-10T00:31:52.155Z,992.57
2019-01-10T00:32:52.144Z,992.63
2019-01-10T00:33:52.114Z,992.62
2019-01-10T00:34:52.104Z,992.62
2019-01-10T00:35:52.090Z,992.64
2019-01-10T00:36:52.086Z,992.62
2019-01-10T00:37:52.090Z,992.64
2019-01-10T00:38:52.054Z,992.61
2019-01-10T00:39:52.057Z,992.62
2019-01-10T00:40:52.034Z,992.67
2019-01-10T00:41:52.023Z,992.63
2019-01-10T00:42:52.009Z,992.64
2019-01-10T00:43:51.999Z,992.66
2019-01-10T00:44:51.985Z,992.68
2019-01-10T00:45:51.971Z,992.71
2019-01-10T00:46:51.975Z,992.76
2019-01-10T00:47:51.952Z,992.76
2019-01-10T00:48:51.935Z,992.73
2019-01-10T00:49:52.184Z,992.75
2019-01-10T00:50:51.924Z,992.78
2019-01-10T00:51:51.905Z,992.78
2019-01-10T00:52:51.889Z,992.79
2019-01-10T00:53:51.879Z,992.79
2019-01-10T00:54:51.880Z,992.81
2019-01-10T00:55:51.857Z,992.85
2019-01-10T00:56:51.847Z,992.84
2019-01-10T00:57:51.926Z,992.83
2019-01-10T00:58:51.817Z,992.85
2019-01-10T00:59:51.805Z,992.87
2019-01-10T01:00:51.794Z,992.84
2019-01-10T01:01:51.783Z,992.9
2019-01-10T01:02:51.772Z,992.91
2019-01-10T01:03:51.757Z,992.93
2019-01-10T01:04:51.744Z,992.99
2019-01-10T01:05:51.742Z,992.97
2019-01-10T01:06:51.724Z,992.93
2019-01-10T01:07:51.709Z,992.95
2019-01-10T01:08:51.696Z,993
2019-01-10T01:09:51.690Z,992.99
2019-01-10T01:10:51.674Z,992.97
2019-01-10T01:11:52.507Z,992.96
2019-01-10T01:12:58.191Z,992.94
2019-01-10T01:13:51.639Z,992.98
2019-01-10T01:14:51.626Z,993
2019-01-10T01:15:51.614Z,992.98
2019-01-10T01:16:51.604Z,993.03
2019-01-10T01:17:51.589Z,993.04
2019-01-10T01:18:51.579Z,993.06
2019-01-10T01:19:51.566Z,993.07
2019-01-10T01:20:51.556Z,993.05
2019-01-10T01:21:51.542Z,993.06
2019-01-10T01:22:51.544Z,993.04
2019-01-10T01:23:51.521Z,993.05
2019-01-10T01:24:51.510Z,993.06
2019-01-10T01:25:51.496Z,993
2019-01-10T01:26:51.484Z,993.02
2019-01-10T01:27:51.485Z,993.06
2019-01-10T01:28:51.466Z,993.03
2019-01-10T01:29:51.454Z,993.05
2019-01-10T01:30:51.435Z,993.09
2019-01-10T01:31:51.425Z,993.08
2019-01-10T01:32:51.412Z,993.11
2019-01-10T01:33:51.398Z,993.09
2019-01-10T01:34:51.386Z,993.17
2019-01-10T01:35:51.379Z,993.15
2019-01-10T01:36:51.365Z,993.21
2019-01-10T01:37:51.353Z,993.25
2019-01-10T01:38:51.340Z,993.24
2019-01-10T01:39:51.330Z,993.24
2019-01-10T01:40:51.317Z,993.28
2019-01-10T01:42:51.291Z,993.3
2019-01-10T01:43:51.283Z,993.31
2019-01-10T01:44:51.281Z,993.31
2019-01-10T01:45:51.259Z,993.3
2019-01-10T01:46:51.249Z,993.3
2019-01-10T01:47:51.252Z,993.3
2019-01-10T01:48:51.231Z,993.31
2019-01-10T01:49:51.213Z,993.27
2019-01-10T01:50:51.199Z,993.33
2019-01-10T01:51:51.189Z,993.35
2019-01-10T01:52:53.386Z,993.34
2019-01-10T01:53:51.163Z,993.35
2019-01-10T01:54:51.153Z,993.36
2019-01-10T01:55:51.140Z,993.38
2019-01-10T01:56:51.127Z,993.34
2019-01-10T01:57:51.118Z,993.37
2019-01-10T01:58:51.115Z,993.42
2019-01-10T01:59:51.092Z,993.39
2019-01-10T02:00:51.080Z,993.4
2019-01-10T02:01:51.068Z,993.41
2019-01-10T02:02:51.055Z,993.47
2019-01-10T02:03:51.045Z,993.4
2019-01-10T02:04:51.040Z,993.46
2019-01-10T02:05:51.038Z,993.46
2019-01-10T02:06:51.011Z,993.47
2019-01-10T02:07:51.004Z,993.51
2019-01-10T02:08:50.987Z,993.49
2019-01-10T02:09:50.983Z,993.48
2019-01-10T02:10:50.968Z,993.47
2019-01-10T02:11:50.961Z,993.49
2019-01-10T02:12:50.943Z,993.51
2019-01-10T02:13:50.929Z,993.48
2019-01-10T02:14:50.917Z,993.51
2019-01-10T02:15:50.915Z,993.55
2019-01-10T02:16:50.990Z,993.51
2019-01-10T02:17:50.886Z,993.54
2019-01-10T02:18:50.869Z,993.52
2019-01-10T02:19:50.858Z,993.56
2019-01-10T02:20:53.301Z,993.53
2019-01-10T02:21:50.838Z,993.5
2019-01-10T02:22:50.823Z,993.53
2019-01-10T02:23:50.814Z,993.57
2019-01-10T02:24:50.798Z,993.53
2019-01-10T02:25:50.790Z,993.57
2019-01-10T02:26:50.776Z,993.61
2019-01-10T02:27:50.764Z,993.56
2019-01-10T02:28:50.752Z,993.56
2019-01-10T02:29:50.743Z,993.54
2019-01-10T02:30:50.729Z,993.58
2019-01-10T02:31:50.728Z,993.57
2019-01-10T02:32:50.705Z,993.56
2019-01-10T02:33:50.702Z,993.52
2019-01-10T02:34:50.680Z,993.5
2019-01-10T02:35:50.669Z,993.58
2019-01-10T02:36:50.664Z,993.49
2019-01-10T02:37:50.650Z,993.5
2019-01-10T02:38:50.636Z,993.55
2019-01-10T02:39:50.639Z,993.57
2019-01-10T02:40:50.630Z,993.57
2019-01-10T02:41:50.604Z,993.56
2019-01-10T02:42:50.607Z,993.59
2019-01-10T02:43:50.606Z,993.61
2019-01-10T02:44:50.583Z,993.64
2019-01-10T02:45:50.572Z,993.61
2019-01-10T02:46:50.558Z,993.59
2019-01-10T02:47:50.541Z,993.62
2019-01-10T02:48:50.527Z,993.6
2019-01-10T02:49:50.533Z,993.61
2019-01-10T02:50:50.530Z,993.63
2019-01-10T02:51:50.515Z,993.62
2019-01-10T02:52:50.480Z,993.66
2019-01-10T02:53:50.467Z,993.64
2019-01-10T02:54:50.460Z,993.66
2019-01-10T02:55:50.465Z,993.63
2019-01-10T02:56:50.473Z,993.65
2019-01-10T02:57:50.445Z,993.67
2019-01-10T02:58:50.424Z,993.65
2019-01-10T02:59:50.402Z,993.56
2019-01-10T03:00:50.413Z,993.63
2019-01-10T03:01:50.409Z,993.66
2019-01-10T03:02:50.378Z,993.74
2019-01-10T03:03:50.359Z,993.66
2019-01-10T03:04:50.329Z,993.72
2019-01-10T03:05:50.326Z,993.71
2019-01-10T03:06:50.319Z,993.71
2019-01-10T03:07:50.300Z,993.75
2019-01-10T03:08:50.309Z,993.76
2019-01-10T03:09:50.270Z,993.73
2019-01-10T03:10:50.267Z,993.75
2019-01-10T03:11:50.244Z,993.7
2019-01-10T03:12:50.234Z,993.68
2019-01-10T03:13:50.226Z,993.64
2019-01-10T03:14:50.210Z,993.66
2019-01-10T03:15:50.197Z,993.63
2019-01-10T03:16:50.186Z,993.65
2019-01-10T03:17:50.176Z,993.65
2019-01-10T03:18:50.163Z,993.63
2019-01-10T03:19:50.165Z,993.61
2019-01-10T03:20:52.508Z,993.62
2019-01-10T03:21:50.678Z,993.58
2019-01-10T03:22:50.120Z,993.6
2019-01-10T03:23:50.104Z,993.58
2019-01-10T03:24:50.112Z,993.56
2019-01-10T03:25:50.081Z,993.57
2019-01-10T03:26:50.066Z,993.54
2019-01-10T03:27:50.056Z,993.54
2019-01-10T03:28:50.044Z,993.57
2019-01-10T03:29:50.030Z,993.52
2019-01-10T03:30:50.020Z,993.51
2019-01-10T03:31:50.008Z,993.46
2019-01-10T03:32:49.997Z,993.52
2019-01-10T03:33:49.983Z,993.49
2019-01-10T03:34:49.972Z,993.47
2019-01-10T03:35:49.960Z,993.45
2019-01-10T03:36:49.947Z,993.4
2019-01-10T03:37:49.937Z,993.49
2019-01-10T03:38:49.923Z,993.48
2019-01-10T03:39:49.912Z,993.5
2019-01-10T03:40:49.901Z,993.47
2019-01-10T03:41:49.889Z,993.46
2019-01-10T03:42:49.891Z,993.48
2019-01-10T03:43:49.865Z,993.45
2019-01-10T03:44:49.852Z,993.5
2019-01-10T03:45:49.843Z,993.47
2019-01-10T03:46:49.829Z,993.44
2019-01-10T03:47:49.824Z,993.43
2019-01-10T03:48:49.806Z,993.45
2019-01-10T03:49:49.794Z,993.45
2019-01-10T03:50:49.827Z,993.42
2019-01-10T03:51:49.822Z,993.46
2019-01-10T03:52:49.760Z,993.45
2019-01-10T03:53:49.748Z,993.4
2019-01-10T03:54:49.743Z,993.47
2019-01-10T03:55:49.722Z,993.47
2019-01-10T03:56:49.720Z,993.5
2019-01-10T03:57:49.701Z,993.49
2019-01-10T03:58:49.688Z,993.55
2019-01-10T03:59:49.694Z,993.6
2019-01-10T04:00:49.665Z,993.6
2019-01-10T04:01:49.653Z,993.59
2019-01-10T04:02:49.646Z,993.58
2019-01-10T04:03:49.635Z,993.61
2019-01-10T04:04:49.617Z,993.61
2019-01-10T04:05:49.605Z,993.57
2019-01-10T04:06:49.598Z,993.59
2019-01-10T04:07:49.588Z,993.58
2019-01-10T04:08:49.574Z,993.6
2019-01-10T04:09:49.555Z,993.58
2019-01-10T04:10:49.545Z,993.61
2019-01-10T04:11:49.536Z,993.59
2019-01-10T04:12:49.523Z,993.6
2019-01-10T04:13:57.232Z,993.59
2019-01-10T04:14:49.499Z,993.63
2019-01-10T04:15:49.488Z,993.62
2019-01-10T04:16:49.477Z,993.63
2019-01-10T04:17:49.482Z,993.59
2019-01-10T04:18:49.456Z,993.6
2019-01-10T04:19:49.441Z,993.62
2019-01-10T04:20:49.433Z,993.62
2019-01-10T04:21:49.415Z,993.59
2019-01-10T04:22:49.417Z,993.61
2019-01-10T04:23:49.413Z,993.59
2019-01-10T04:24:49.392Z,993.65
2019-01-10T04:25:49.375Z,993.66
2019-01-10T04:26:49.372Z,993.68
2019-01-10T04:27:49.365Z,993.71
2019-01-10T04:28:49.351Z,993.7
2019-01-10T04:29:49.324Z,993.75
2019-01-10T04:30:49.328Z,993.76
2019-01-10T04:31:49.305Z,993.75
2019-01-10T04:32:49.297Z,993.71
2019-01-10T04:33:49.292Z,993.77
2019-01-10T04:34:49.286Z,993.75
2019-01-10T04:35:49.261Z,993.73
2019-01-10T04:36:49.243Z,993.71
2019-01-10T04:37:49.243Z,993.73
2019-01-10T04:38:49.220Z,993.73
2019-01-10T04:39:49.203Z,993.81
2019-01-10T04:40:49.192Z,993.75
2019-01-10T04:41:49.182Z,993.77
2019-01-10T04:42:49.168Z,993.85
2019-01-10T04:43:49.156Z,993.76
2019-01-10T04:44:49.146Z,993.8
2019-01-10T04:45:49.137Z,993.79
2019-01-10T04:46:49.125Z,993.74
2019-01-10T04:47:49.115Z,993.8
2019-01-10T04:48:49.098Z,993.77
2019-01-10T04:49:49.086Z,993.8
2019-01-10T04:50:49.077Z,993.79
2019-01-10T04:51:49.063Z,993.79
2019-01-10T04:52:49.055Z,993.74
2019-01-10T04:53:49.038Z,993.77
2019-01-10T04:54:49.038Z,993.78
2019-01-10T04:55:49.014Z,993.78
2019-01-10T04:56:49.004Z,993.76
2019-01-10T04:57:48.991Z,993.81
2019-01-10T04:58:48.991Z,993.79
2019-01-10T04:59:48.968Z,993.82
2019-01-10T05:00:48.958Z,993.85
2019-01-10T05:01:48.946Z,993.89
2019-01-10T05:02:48.933Z,993.85
2019-01-10T05:03:48.924Z,993.9
2019-01-10T05:04:48.910Z,993.91
2019-01-10T05:05:48.896Z,993.92
2019-01-10T05:06:48.885Z,993.93
2019-01-10T05:07:49.074Z,993.95
2019-01-10T05:08:48.865Z,993.93
2019-01-10T05:09:48.850Z,993.95
2019-01-10T05:10:48.839Z,993.94
2019-01-10T05:11:48.828Z,993.98
2019-01-10T05:12:48.814Z,993.98
2019-01-10T05:13:48.811Z,994.03
2019-01-10T05:14:48.791Z,994.02
2019-01-10T05:15:48.782Z,994.02
2019-01-10T05:16:48.768Z,994.06
2019-01-10T05:17:48.757Z,994.04
2019-01-10T05:18:48.744Z,994.02
2019-01-10T05:19:48.732Z,994.06
2019-01-10T05:20:48.724Z,994.1
2019-01-10T05:21:48.727Z,994.07
2019-01-10T05:22:50.850Z,994.08
2019-01-10T05:23:48.686Z,994.14
2019-01-10T05:24:48.675Z,994.12
2019-01-10T05:25:48.662Z,994.1
2019-01-10T05:26:48.650Z,994.12
2019-01-10T05:27:48.648Z,994.14
2019-01-10T05:28:48.628Z,994.15
2019-01-10T05:29:48.617Z,994.11
2019-01-10T05:30:48.603Z,994.14
2019-01-10T05:31:48.594Z,994.13
2019-01-10T05:32:48.606Z,994.08
2019-01-10T05:33:48.576Z,994.13
2019-01-10T05:34:48.562Z,994.19
2019-01-10T05:35:48.547Z,994.16
2019-01-10T05:36:48.535Z,994.25
2019-01-10T05:37:48.524Z,994.25
2019-01-10T05:38:48.519Z,994.26
2019-01-10T05:39:48.504Z,994.26
2019-01-10T05:40:48.486Z,994.26
2019-01-10T05:41:48.476Z,994.3
2019-01-10T05:42:48.465Z,994.31
2019-01-10T05:43:48.472Z,994.35
2019-01-10T05:44:48.442Z,994.33
2019-01-10T05:45:48.440Z,994.37
2019-01-10T05:46:48.980Z,994.36
2019-01-10T05:47:48.407Z,994.35
2019-01-10T05:48:48.398Z,994.37
2019-01-10T05:49:48.393Z,994.4
2019-01-10T05:50:48.384Z,994.39
2019-01-10T05:51:48.363Z,994.42
2019-01-10T05:52:48.345Z,994.43
2019-01-10T05:53:48.335Z,994.4
2019-01-10T05:54:48.331Z,994.45
2019-01-10T05:55:48.326Z,994.44
2019-01-10T05:56:48.301Z,994.48
2019-01-10T05:57:48.289Z,994.52
2019-01-10T05:58:48.286Z,994.52
2019-01-10T05:59:48.265Z,994.49
2019-01-10T06:00:48.263Z,994.53
2019-01-10T06:01:48.242Z,994.51
2019-01-10T06:02:48.311Z,994.52
2019-01-10T06:03:53.102Z,994.54
2019-01-10T06:04:48.227Z,994.53
2019-01-10T06:05:48.262Z,994.53
2019-01-10T06:06:48.184Z,994.57
2019-01-10T06:07:48.171Z,994.6
2019-01-10T06:08:48.161Z,994.57
2019-01-10T06:09:48.157Z,994.6
2019-01-10T06:10:48.144Z,994.6
2019-01-10T06:11:48.122Z,994.62
2019-01-10T06:12:48.118Z,994.66
2019-01-10T06:13:48.196Z,994.67
2019-01-10T06:14:48.090Z,994.69
2019-01-10T06:15:48.077Z,994.68
2019-01-10T06:16:48.070Z,994.69
2019-01-10T06:17:48.054Z,994.65
2019-01-10T06:18:48.043Z,994.67
2019-01-10T06:19:48.032Z,994.69
2019-01-10T06:20:48.020Z,994.69
2019-01-10T06:21:48.005Z,994.72
2019-01-10T06:22:47.992Z,994.7
2019-01-10T06:23:47.982Z,994.71
2019-01-10T06:24:47.976Z,994.69
2019-01-10T06:25:47.968Z,994.67
2019-01-10T06:26:47.947Z,994.7
2019-01-10T06:27:47.975Z,994.74
2019-01-10T06:28:47.922Z,994.78
2019-01-10T06:29:47.911Z,994.75
2019-01-10T06:30:47.907Z,994.78
2019-01-10T06:31:47.888Z,994.81
2019-01-10T06:32:47.881Z,994.84
2019-01-10T06:33:47.864Z,994.86
2019-01-10T06:34:47.851Z,994.82
2019-01-10T06:35:47.850Z,994.87
2019-01-10T06:36:47.834Z,994.88
2019-01-10T06:37:47.825Z,994.89
2019-01-10T06:38:47.806Z,994.85
2019-01-10T06:39:47.795Z,994.89
2019-01-10T06:40:47.783Z,994.87
2019-01-10T06:41:47.768Z,994.87
2019-01-10T06:42:47.762Z,994.86
2019-01-10T06:43:47.752Z,994.87
2019-01-10T06:44:47.739Z,994.87
2019-01-10T06:45:47.725Z,994.83
2019-01-10T06:46:47.715Z,994.84
2019-01-10T06:47:47.717Z,994.86
2019-01-10T06:48:47.688Z,994.89
2019-01-10T06:49:47.675Z,994.86
2019-01-10T06:50:47.663Z,994.93
2019-01-10T06:51:47.652Z,994.94
2019-01-10T06:52:47.651Z,994.95
2019-01-10T06:53:48.483Z,994.96
2019-01-10T06:54:56.251Z,994.97
2019-01-10T06:55:47.605Z,994.98
2019-01-10T06:56:47.594Z,995.04
2019-01-10T06:57:47.583Z,995.04
2019-01-10T06:58:47.582Z,995.01
2019-01-10T06:59:47.557Z,995.07
2019-01-10T07:00:47.554Z,995.06
2019-01-10T07:01:47.537Z,995.05
2019-01-10T07:02:47.524Z,995.07
2019-01-10T07:03:47.513Z,995.08
2019-01-10T07:04:47.502Z,995.11
2019-01-10T07:05:47.489Z,995.12
2019-01-10T07:06:47.475Z,995.1
2019-01-10T07:07:55.796Z,995.08
2019-01-10T07:08:47.453Z,995.12
2019-01-10T07:09:47.442Z,995.07
2019-01-10T07:10:47.447Z,995.08
2019-01-10T07:11:47.420Z,995.1
2019-01-10T07:12:47.406Z,995.13
2019-01-10T07:13:47.411Z,995.17
2019-01-10T07:14:53.476Z,995.1
2019-01-10T07:15:47.371Z,995.1
2019-01-10T07:16:53.408Z,995.16
2019-01-10T07:17:47.360Z,995.15
2019-01-10T07:18:47.335Z,995.19
2019-01-10T07:19:47.322Z,995.2
2019-01-10T07:20:47.311Z,995.2
2019-01-10T07:21:47.308Z,995.21
2019-01-10T07:22:47.287Z,995.24
2019-01-10T07:23:47.273Z,995.27
2019-01-10T07:24:47.261Z,995.3
2019-01-10T07:25:47.249Z,995.28
2019-01-10T07:26:47.240Z,995.35
2019-01-10T07:27:47.228Z,995.32
2019-01-10T07:28:47.217Z,995.3
2019-01-10T07:29:47.206Z,995.34
2019-01-10T07:30:47.194Z,995.35
2019-01-10T07:31:47.201Z,995.35
2019-01-10T07:32:47.172Z,995.34
2019-01-10T07:33:47.155Z,995.34
2019-01-10T07:34:47.144Z,995.38
2019-01-10T07:35:47.141Z,995.34
2019-01-10T07:36:47.118Z,995.41
2019-01-10T07:37:47.107Z,995.35
2019-01-10T07:38:47.094Z,995.32
2019-01-10T07:39:47.086Z,995.39
2019-01-10T07:40:47.074Z,995.37
2019-01-10T07:41:47.063Z,995.4
2019-01-10T07:42:47.048Z,995.45
2019-01-10T07:43:47.035Z,995.43
2019-01-10T07:44:47.028Z,995.4
2019-01-10T07:45:47.011Z,995.42
2019-01-10T07:46:47.003Z,995.42
2019-01-10T07:47:46.990Z,995.4
2019-01-10T07:48:46.978Z,995.42
2019-01-10T07:49:46.968Z,995.41
2019-01-10T07:50:46.957Z,995.45
2019-01-10T07:51:46.960Z,995.45
2019-01-10T07:52:46.932Z,995.43
2019-01-10T07:53:46.935Z,995.39
2019-01-10T07:54:46.912Z,995.43
2019-01-10T07:55:46.903Z,995.43
2019-01-10T07:56:46.890Z,995.41
2019-01-10T07:57:46.887Z,995.43
2019-01-10T07:58:46.874Z,995.4
2019-01-10T07:59:46.855Z,995.41
2019-01-10T08:00:46.844Z,995.39
2019-01-10T08:01:46.851Z,995.44
2019-01-10T08:02:46.840Z,995.46
2019-01-10T08:03:46.817Z,995.5
2019-01-10T08:04:46.792Z,995.5
2019-01-10T08:05:46.778Z,995.54
2019-01-10T08:06:46.769Z,995.57
2019-01-10T08:07:46.758Z,995.59
2019-01-10T08:08:46.759Z,995.64
2019-01-10T08:09:46.756Z,995.63
2019-01-10T08:10:46.723Z,995.64
2019-01-10T08:11:46.714Z,995.65
2019-01-10T08:12:46.703Z,995.69
2019-01-10T08:13:46.690Z,995.67
2019-01-10T08:14:46.676Z,995.7
2019-01-10T08:15:46.665Z,995.7
2019-01-10T08:16:46.655Z,995.74
2019-01-10T08:17:46.642Z,995.75
2019-01-10T08:18:46.629Z,995.79
2019-01-10T08:19:46.618Z,995.81
2019-01-10T08:20:46.607Z,995.83
2019-01-10T08:21:46.721Z,995.84
2019-01-10T08:22:46.593Z,995.88
2019-01-10T08:23:46.570Z,995.91
2019-01-10T08:24:47.415Z,995.89
2019-01-10T08:25:46.545Z,995.86
2019-01-10T08:26:46.535Z,995.86
2019-01-10T08:27:46.528Z,995.92
2019-01-10T08:28:46.512Z,995.95
2019-01-10T08:29:46.501Z,995.93
2019-01-10T08:30:46.489Z,995.96
2019-01-10T08:31:46.489Z,995.98
2019-01-10T08:32:46.464Z,995.99
2019-01-10T08:33:46.463Z,995.98
2019-01-10T08:34:46.445Z,996.01
2019-01-10T08:35:46.431Z,996.09
2019-01-10T08:36:46.427Z,996.07
2019-01-10T08:37:46.408Z,996.05
2019-01-10T08:38:46.394Z,996.05
2019-01-10T08:39:46.389Z,996.12
2019-01-10T08:40:46.372Z,996.1
2019-01-10T08:41:46.359Z,996.14
2019-01-10T08:42:46.357Z,996.14
2019-01-10T08:43:46.338Z,996.13
2019-01-10T08:44:46.356Z,996.12
2019-01-10T08:45:46.315Z,996.14
2019-01-10T08:46:46.303Z,996.16
2019-01-10T08:47:46.302Z,996.11
2019-01-10T08:48:46.296Z,996.14
2019-01-10T08:49:46.270Z,996.14
2019-01-10T08:50:46.280Z,996.19
2019-01-10T08:51:46.245Z,996.2
2019-01-10T08:52:46.312Z,996.23
2019-01-10T08:53:53.718Z,996.25
2019-01-10T08:54:46.223Z,996.19
2019-01-10T08:55:46.220Z,996.2
2019-01-10T08:56:46.195Z,996.23
2019-01-10T08:57:46.197Z,996.26
2019-01-10T08:58:46.170Z,996.24
2019-01-10T08:59:46.152Z,996.27
2019-01-10T09:00:46.140Z,996.31
2019-01-10T09:01:46.131Z,996.36
2019-01-10T09:02:46.120Z,996.4
2019-01-10T09:03:46.114Z,996.36
2019-01-10T09:04:46.096Z,996.37
2019-01-10T09:05:46.093Z,996.34
2019-01-10T09:06:46.070Z,996.35
2019-01-10T09:07:46.061Z,996.37
2019-01-10T09:08:46.050Z,996.34
2019-01-10T09:09:46.036Z,996.39
2019-01-10T09:10:46.030Z,996.33
2019-01-10T09:11:46.014Z,996.36
2019-01-10T09:12:46.004Z,996.36
2019-01-10T09:13:45.993Z,996.4
2019-01-10T09:14:45.981Z,996.41
2019-01-10T09:15:45.973Z,996.38
2019-01-10T09:16:45.960Z,996.37
2019-01-10T09:17:45.948Z,996.44
2019-01-10T09:18:45.949Z,996.42
2019-01-10T09:19:45.930Z,996.47
2019-01-10T09:20:45.917Z,996.45
2019-01-10T09:21:45.904Z,996.46
2019-01-10T09:22:45.898Z,996.44
2019-01-10T09:23:45.883Z,996.48
2019-01-10T09:24:45.873Z,996.46
2019-01-10T09:25:45.862Z,996.45
2019-01-10T09:26:45.851Z,996.49
2019-01-10T09:27:45.841Z,996.47
2019-01-10T09:28:45.829Z,996.48
2019-01-10T09:29:45.818Z,996.51
2019-01-10T09:30:45.808Z,996.49
2019-01-10T09:31:45.798Z,996.49
2019-01-10T09:32:45.797Z,996.52
2019-01-10T09:33:45.775Z,996.52
2019-01-10T09:34:45.768Z,996.54
2019-01-10T09:35:45.756Z,996.51
2019-01-10T09:36:45.747Z,996.54
2019-01-10T09:37:45.734Z,996.58
2019-01-10T09:38:45.723Z,996.55
2019-01-10T09:39:45.712Z,996.56
2019-01-10T09:40:45.751Z,996.56
2019-01-10T09:41:45.691Z,996.57
2019-01-10T09:42:45.676Z,996.58
2019-01-10T09:43:45.666Z,996.58
2019-01-10T09:44:45.670Z,996.59
2019-01-10T09:45:45.653Z,996.59
2019-01-10T09:46:45.648Z,996.64
2019-01-10T09:47:45.621Z,996.66
2019-01-10T09:48:45.612Z,996.62
2019-01-10T09:49:45.599Z,996.64
2019-01-10T09:50:45.594Z,996.66
2019-01-10T09:51:45.580Z,996.67
2019-01-10T09:52:45.568Z,996.66
2019-01-10T09:53:45.554Z,996.7
2019-01-10T09:54:45.546Z,996.71
2019-01-10T09:55:47.589Z,996.68
2019-01-10T09:56:45.536Z,996.67
2019-01-10T09:57:45.515Z,996.65
2019-01-10T09:58:45.519Z,996.74
2019-01-10T09:59:45.490Z,996.7
2019-01-10T10:00:45.480Z,996.69
2019-01-10T10:01:45.482Z,996.74
2019-01-10T10:02:45.456Z,996.72
2019-01-10T10:03:45.456Z,996.75
2019-01-10T10:04:45.439Z,996.73
2019-01-10T10:05:45.426Z,996.73
2019-01-10T10:06:45.417Z,996.75
2019-01-10T10:07:45.402Z,996.75
2019-01-10T10:08:45.395Z,996.77
2019-01-10T10:09:45.380Z,996.75
2019-01-10T10:10:45.368Z,996.77
2019-01-10T10:11:45.364Z,996.74
2019-01-10T10:12:45.351Z,996.76
2019-01-10T10:13:45.338Z,996.73
2019-01-10T10:14:45.326Z,996.77
2019-01-10T10:15:52.202Z,996.76
2019-01-10T10:16:45.308Z,996.8
2019-01-10T10:17:45.309Z,996.77
2019-01-10T10:18:45.294Z,996.72
2019-01-10T10:19:45.271Z,996.76
2019-01-10T10:20:45.262Z,996.8
2019-01-10T10:21:45.259Z,996.77
2019-01-10T10:22:45.241Z,996.75
2019-01-10T10:23:45.242Z,996.72
2019-01-10T10:24:45.277Z,996.76
2019-01-10T10:25:45.207Z,996.77
2019-01-10T10:26:51.101Z,996.77
2019-01-10T10:27:45.193Z,996.78
2019-01-10T10:28:45.177Z,996.77
2019-01-10T10:29:45.170Z,996.81
2019-01-10T10:30:45.168Z,996.81
2019-01-10T10:31:45.159Z,996.81
2019-01-10T10:32:45.142Z,996.85
2019-01-10T10:33:45.129Z,996.9
2019-01-10T10:34:45.106Z,996.85
2019-01-10T10:35:45.098Z,996.84
2019-01-10T10:36:45.101Z,996.89
2019-01-10T10:37:45.078Z,996.92
2019-01-10T10:38:45.067Z,996.9
2019-01-10T10:39:45.053Z,996.89
2019-01-10T10:40:45.044Z,996.94
2019-01-10T10:41:45.033Z,996.94
2019-01-10T10:42:45.037Z,996.94
2019-01-10T10:43:45.029Z,996.88
2019-01-10T10:44:44.998Z,996.88
2019-01-10T10:45:44.988Z,996.93
2019-01-10T10:46:44.987Z,996.94
2019-01-10T10:47:44.971Z,996.92
2019-01-10T10:48:44.955Z,996.91
2019-01-10T10:49:44.947Z,996.91
2019-01-10T10:50:44.936Z,996.92
2019-01-10T10:51:44.923Z,996.94
2019-01-10T10:52:44.917Z,996.92
2019-01-10T10:53:44.906Z,996.93
2019-01-10T10:54:44.902Z,996.93
2019-01-10T10:55:44.883Z,996.91
2019-01-10T10:56:44.871Z,996.9
2019-01-10T10:57:44.868Z,996.92
2019-01-10T10:58:44.855Z,996.93
2019-01-10T10:59:44.852Z,996.9
2019-01-10T11:00:44.829Z,996.9
2019-01-10T11:01:44.818Z,996.9
2019-01-10T11:02:44.806Z,996.88
2019-01-10T11:03:44.796Z,996.9
2019-01-10T11:04:44.786Z,996.95
2019-01-10T11:05:44.780Z,996.9
2019-01-10T11:06:44.765Z,996.9
2019-01-10T11:07:44.757Z,996.91
2019-01-10T11:08:44.745Z,996.87
2019-01-10T11:09:44.735Z,996.87
2019-01-10T11:10:44.724Z,996.87
2019-01-10T11:11:44.713Z,996.84
2019-01-10T11:12:44.709Z,996.86
2019-01-10T11:13:44.689Z,996.9
2019-01-10T11:14:47.063Z,996.85
2019-01-10T11:15:44.668Z,996.86
2019-01-10T11:16:44.667Z,996.85
2019-01-10T11:17:44.647Z,996.85
2019-01-10T11:18:44.640Z,996.85
2019-01-10T11:19:44.625Z,996.85
2019-01-10T11:20:44.631Z,996.88
2019-01-10T11:21:44.605Z,996.85
2019-01-10T11:22:44.593Z,996.86
2019-01-10T11:23:44.588Z,996.8
2019-01-10T11:24:44.592Z,996.82
2019-01-10T11:25:44.571Z,996.82
2019-01-10T11:26:44.553Z,996.83
2019-01-10T11:27:44.553Z,996.81
2019-01-10T11:28:44.530Z,996.86
2019-01-10T11:29:44.540Z,996.79
2019-01-10T11:30:44.510Z,996.84
2019-01-10T11:31:44.498Z,996.83
2019-01-10T11:32:44.491Z,996.83
2019-01-10T11:33:44.478Z,996.84
2019-01-10T11:34:44.466Z,996.84
2019-01-10T11:35:44.457Z,996.84
2019-01-10T11:36:44.443Z,996.84
2019-01-10T11:37:44.433Z,996.88
2019-01-10T11:38:45.223Z,996.86
2019-01-10T11:39:44.412Z,996.86
2019-01-10T11:40:44.402Z,996.86
2019-01-10T11:41:44.391Z,996.8
2019-01-10T11:42:44.430Z,996.81
2019-01-10T11:43:44.369Z,996.79
2019-01-10T11:44:44.360Z,996.86
2019-01-10T11:45:44.348Z,996.86
2019-01-10T11:46:44.337Z,996.79
2019-01-10T11:47:44.327Z,996.83
2019-01-10T11:48:44.319Z,996.8
2019-01-10T11:49:44.308Z,996.78
2019-01-10T11:50:44.297Z,996.73
2019-01-10T11:51:44.283Z,996.76
2019-01-10T11:52:44.275Z,996.75
2019-01-10T11:53:44.268Z,996.77
2019-01-10T11:54:44.251Z,996.78
2019-01-10T11:55:44.242Z,996.73
2019-01-10T11:56:44.233Z,996.72
2019-01-10T11:57:44.221Z,996.72
2019-01-10T11:58:44.211Z,996.74
2019-01-10T11:59:44.205Z,996.78
2019-01-10T12:00:44.195Z,996.74
2019-01-10T12:01:44.180Z,996.69
2019-01-10T12:02:44.169Z,996.74
2019-01-10T12:03:44.157Z,996.75
2019-01-10T12:04:44.145Z,996.73
2019-01-10T12:05:47.713Z,996.73
2019-01-10T12:06:44.141Z,996.75
2019-01-10T12:07:44.113Z,996.72
2019-01-10T12:08:44.102Z,996.71
2019-01-10T12:09:44.097Z,996.69
2019-01-10T12:10:44.084Z,996.73
2019-01-10T12:11:44.198Z,996.73
2019-01-10T12:12:44.059Z,996.72
2019-01-10T12:13:44.050Z,996.73
2019-01-10T12:14:44.050Z,996.68
2019-01-10T12:15:44.027Z,996.67
2019-01-10T12:16:44.030Z,996.7
2019-01-10T12:17:44.017Z,996.67
2019-01-10T12:18:43.995Z,996.64
2019-01-10T12:19:43.986Z,996.68
2019-01-10T12:20:43.975Z,996.67
2019-01-10T12:21:43.964Z,996.62
2019-01-10T12:22:43.959Z,996.67
2019-01-10T12:23:43.942Z,996.65
2019-01-10T12:24:43.938Z,996.64
2019-01-10T12:25:43.919Z,996.61
2019-01-10T12:26:43.910Z,996.63
2019-01-10T12:27:43.899Z,996.67
2019-01-10T12:28:43.890Z,996.69
2019-01-10T12:29:43.880Z,996.71
2019-01-10T12:30:43.868Z,996.72
2019-01-10T12:31:43.863Z,996.67
2019-01-10T12:32:43.849Z,996.66